Time;durP1;ratioP1;P1;durP2;ratioP2;P2;SDS_P1;SDS_P2;PMS_P1;PMS_P2;Temp;Humidity;BMP_temperature;BMP_pressure;BME280_temperature;BME280_humidity;BME280_pressure;Samples;Min_cycle;Max_cycle;Signal;HPM_P1;HPM_P2
2021/07/27 00:02:19;;;;;;;6.93;6.03;;;;;;;;;;5019063;28;20300;-72
2021/07/27 00:05:04;;;;;;;7.95;6.13;;;;;;;;;;5024774;28;20695;-72
2021/07/27 00:07:49;;;;;;;7.88;6.15;;;;;;;;;;5015047;28;20036;-74
2021/07/27 00:10:35;;;;;;;6.55;5.85;;;;;;;;;;5017265;28;20106;-72
2021/07/27 00:13:20;;;;;;;7.30;6.43;;;;;;;;;;5025297;28;20079;-72
2021/07/27 00:16:05;;;;;;;8.45;6.20;;;;;;;;;;5025033;28;20107;-72
2021/07/27 00:18:50;;;;;;;7.22;5.88;;;;;;;;;;5016946;28;20037;-72
2021/07/27 00:21:34;;;;;;;7.78;6.45;;;;;;;;;;5008658;28;20669;-74
2021/07/27 00:24:21;;;;;;;7.97;6.15;;;;;;;;;;5021991;28;20079;-73
2021/07/27 00:27:05;;;;;;;7.18;5.90;;;;;;;;;;5018971;28;20057;-72
2021/07/27 00:29:50;;;;;;;9.40;6.22;;;;;;;;;;5023628;28;20501;-71
2021/07/27 00:32:41;;;;;;;6.70;5.95;;;;;;;;;;5023246;28;20095;-70
2021/07/27 00:35:26;;;;;;;7.00;5.88;;;;;;;;;;5012166;28;20621;-72
2021/07/27 00:38:18;;;;;;;7.00;6.03;;;;;;;;;;5012271;28;20076;-72
2021/07/27 00:41:03;;;;;;;6.68;5.65;;;;;;;;;;5022136;28;20045;-72
2021/07/27 00:43:48;;;;;;;6.88;6.10;;;;;;;;;;5020513;28;20087;-72
2021/07/27 00:46:32;;;;;;;7.03;5.85;;;;;;;;;;5014957;28;20035;-73
2021/07/27 00:49:17;;;;;;;7.72;6.35;;;;;;;;;;5016669;28;20114;-75
2021/07/27 00:52:01;;;;;;;8.00;6.50;;;;;;;;;;5014197;28;20101;-72
2021/07/27 00:54:46;;;;;;;6.93;5.88;;;;;;;;;;5021219;28;20076;-73
2021/07/27 00:57:31;;;;;;;6.80;6.00;;;;;;;;;;5026634;28;20111;-73
2021/07/27 01:00:16;;;;;;;6.95;6.20;;;;;;;;;;5017102;28;20044;-70
2021/07/27 01:03:00;;;;;;;7.03;5.78;;;;;;;;;;5015845;28;20090;-70
2021/07/27 01:05:46;;;;;;;7.55;6.32;;;;;;;;;;5025485;28;20521;-70
2021/07/27 01:08:31;;;;;;;8.10;6.25;;;;;;;;;;5018056;28;20533;-70
2021/07/27 01:11:23;;;;;;;7.22;6.13;;;;;;;;;;5000701;28;20032;-70
2021/07/27 01:14:07;;;;;;;7.15;5.85;;;;;;;;;;5011085;28;20098;-70
2021/07/27 01:16:53;;;;;;;7.18;6.07;;;;;;;;;;5019797;28;20052;-71
2021/07/27 01:38:39;;;;;;;6.53;5.53;;;;;;;;;;5016975;28;20056;-71
2021/07/27 01:44:06;;;;;;;6.63;5.93;;;;;;;;;;5015571;28;20521;-71
2021/07/27 01:46:51;;;;;;;8.13;6.10;;;;;;;;;;5024985;28;20087;-70
2021/07/27 01:49:35;;;;;;;6.93;5.65;;;;;;;;;;5019364;28;20052;-71
2021/07/27 01:52:23;;;;;;;6.38;5.63;;;;;;;;;;5020391;28;20040;-72
2021/07/27 01:55:09;;;;;;;6.55;5.47;;;;;;;;;;5011912;28;20044;-71
2021/07/27 01:57:54;;;;;;;7.15;6.18;;;;;;;;;;5020756;28;20068;-71
2021/07/27 02:00:39;;;;;;;6.65;5.78;;;;;;;;;;5014283;28;20079;-71
2021/07/27 02:03:23;;;;;;;6.40;5.43;;;;;;;;;;5017222;28;20045;-70
2021/07/27 02:06:08;;;;;;;7.57;5.60;;;;;;;;;;5015331;28;20041;-71
2021/07/27 02:08:55;;;;;;;8.05;6.35;;;;;;;;;;5026639;28;20068;-71
2021/07/27 02:11:43;;;;;;;6.88;5.90;;;;;;;;;;5011608;28;20072;-70
2021/07/27 02:15:03;;;;;;;7.00;6.30;;;;;;;;;;5021132;28;20049;-70
2021/07/27 02:17:33;;;;;;;6.60;5.60;;;;;;;;;;5024633;28;20056;-70
2021/07/27 02:20:18;;;;;;;8.32;5.88;;;;;;;;;;5015910;28;20429;-70
2021/07/27 02:23:03;;;;;;;6.93;5.75;;;;;;;;;;5023377;28;20082;-71
2021/07/27 02:25:48;;;;;;;6.55;5.43;;;;;;;;;;5023975;28;20048;-71
2021/07/27 02:28:33;;;;;;;6.82;5.88;;;;;;;;;;5019230;28;20064;-71
2021/07/27 02:31:26;;;;;;;6.10;5.05;;;;;;;;;;5019335;28;20510;-71
2021/07/27 02:34:10;;;;;;;6.25;5.30;;;;;;;;;;5023176;28;20052;-71
2021/07/27 02:36:55;;;;;;;5.60;4.97;;;;;;;;;;5016281;28;20068;-71
2021/07/27 02:39:40;;;;;;;6.85;5.65;;;;;;;;;;5026010;28;20425;-71
2021/07/27 02:42:24;;;;;;;6.82;5.45;;;;;;;;;;5007179;28;20091;-71
2021/07/27 02:45:10;;;;;;;6.38;5.20;;;;;;;;;;5020610;28;20096;-70
2021/07/27 02:47:55;;;;;;;6.60;5.57;;;;;;;;;;5026271;28;20605;-71
2021/07/27 02:50:39;;;;;;;5.72;5.18;;;;;;;;;;5004950;28;20035;-70
2021/07/27 02:53:25;;;;;;;5.72;5.13;;;;;;;;;;5022042;28;20032;-70
2021/07/27 02:56:09;;;;;;;6.03;5.18;;;;;;;;;;5018190;28;20033;-70
2021/07/27 02:58:54;;;;;;;6.93;5.65;;;;;;;;;;5018782;28;20052;-71
2021/07/27 03:01:38;;;;;;;6.50;5.65;;;;;;;;;;5022679;28;20039;-71
2021/07/27 03:04:23;;;;;;;7.28;5.43;;;;;;;;;;5023141;28;20564;-70
2021/07/27 03:07:09;;;;;;;6.07;5.25;;;;;;;;;;5020505;28;20040;-71
2021/07/27 03:12:58;;;;;;;6.68;5.32;;;;;;;;;;5021980;28;20057;-71
2021/07/27 03:15:42;;;;;;;6.28;5.10;;;;;;;;;;5026176;28;20041;-71
2021/07/27 03:18:27;;;;;;;5.80;5.20;;;;;;;;;;5019899;28;20075;-72
2021/07/27 03:21:18;;;;;;;6.90;5.35;;;;;;;;;;5011085;28;20053;-71
2021/07/27 03:24:03;;;;;;;6.77;5.60;;;;;;;;;;5021238;28;20528;-70
2021/07/27 03:26:47;;;;;;;6.55;5.50;;;;;;;;;;5011196;28;20045;-72
2021/07/27 03:29:32;;;;;;;6.78;5.45;;;;;;;;;;5015021;28;20122;-72
2021/07/27 03:32:16;;;;;;;6.53;5.40;;;;;;;;;;5019546;28;20067;-72
2021/07/27 03:35:01;;;;;;;6.38;5.68;;;;;;;;;;5017290;28;20041;-72
2021/07/27 03:37:46;;;;;;;6.88;5.53;;;;;;;;;;5020151;28;20083;-71
2021/07/27 03:40:31;;;;;;;6.68;4.75;;;;;;;;;;5019198;28;20517;-71
2021/07/27 03:43:16;;;;;;;5.95;4.97;;;;;;;;;;5021158;28;20060;-70
2021/07/27 03:46:00;;;;;;;6.50;5.20;;;;;;;;;;5017178;28;20216;-71
2021/07/27 03:48:45;;;;;;;7.40;5.45;;;;;;;;;;5021929;28;20121;-70
2021/07/27 03:51:30;;;;;;;6.60;5.45;;;;;;;;;;5019392;28;20785;-71
2021/07/27 03:54:14;;;;;;;6.07;5.40;;;;;;;;;;5024307;28;20036;-70
2021/07/27 03:57:02;;;;;;;7.72;5.78;;;;;;;;;;5014164;28;20042;-71
2021/07/27 03:59:47;;;;;;;6.07;4.95;;;;;;;;;;5019505;28;20049;-70
2021/07/27 04:02:31;;;;;;;7.85;5.85;;;;;;;;;;5008671;28;20041;-71
2021/07/27 04:05:16;;;;;;;7.32;5.70;;;;;;;;;;5016568;28;20264;-70
2021/07/27 04:08:01;;;;;;;6.25;5.60;;;;;;;;;;5028021;28;20091;-71
2021/07/27 04:10:45;;;;;;;5.75;5.15;;;;;;;;;;5021865;28;20052;-70
2021/07/27 04:13:33;;;;;;;6.60;5.50;;;;;;;;;;5020108;28;20199;-71
2021/07/27 04:16:18;;;;;;;5.85;5.07;;;;;;;;;;5028120;28;20041;-71
2021/07/27 04:19:02;;;;;;;6.53;5.53;;;;;;;;;;5019978;28;20125;-72
2021/07/27 04:21:47;;;;;;;6.50;5.55;;;;;;;;;;5019445;28;20496;-71
2021/07/27 04:24:31;;;;;;;6.53;5.70;;;;;;;;;;5015907;28;20045;-71
2021/07/27 04:27:17;;;;;;;5.88;5.18;;;;;;;;;;5025552;28;20049;-71
2021/07/27 04:30:01;;;;;;;6.75;5.55;;;;;;;;;;5026555;28;20481;-71
2021/07/27 04:32:46;;;;;;;6.55;5.47;;;;;;;;;;5024687;28;20056;-71
2021/07/27 04:35:30;;;;;;;6.70;5.82;;;;;;;;;;5029345;28;20052;-71
2021/07/27 04:38:15;;;;;;;6.20;5.60;;;;;;;;;;5026929;28;20486;-71
2021/07/27 04:40:59;;;;;;;6.35;5.25;;;;;;;;;;5024585;28;20132;-71
2021/07/27 04:43:44;;;;;;;7.07;5.43;;;;;;;;;;5029360;28;20044;-71
2021/07/27 04:46:28;;;;;;;7.97;5.60;;;;;;;;;;5024321;28;20103;-71
2021/07/27 04:49:16;;;;;;;6.15;5.15;;;;;;;;;;5017185;28;20040;-71
2021/07/27 04:52:01;;;;;;;7.72;5.30;;;;;;;;;;5024400;28;20406;-74
2021/07/27 04:54:51;;;;;;;6.43;4.90;;;;;;;;;;5025370;28;20680;-71
2021/07/27 04:57:36;;;;;;;6.60;5.40;;;;;;;;;;5019293;28;20075;-71
2021/07/27 05:00:22;;;;;;;6.85;4.82;;;;;;;;;;5023765;28;20103;-72
2021/07/27 05:03:07;;;;;;;6.57;5.40;;;;;;;;;;5016123;28;20052;-71
2021/07/27 05:05:54;;;;;;;6.32;5.50;;;;;;;;;;5027663;28;20848;-71
2021/07/27 05:08:42;;;;;;;6.15;5.50;;;;;;;;;;5021496;28;20070;-71
2021/07/27 05:11:26;;;;;;;6.90;6.00;;;;;;;;;;5025910;28;20575;-72
2021/07/27 05:14:11;;;;;;;6.78;5.60;;;;;;;;;;5018483;28;20048;-71
2021/07/27 05:16:56;;;;;;;6.32;5.43;;;;;;;;;;5015014;28;20604;-71
2021/07/27 05:19:59;;;;;;;6.88;5.28;;;;;;;;;;5025798;28;20143;-71
2021/07/27 05:22:44;;;;;;;6.22;5.20;;;;;;;;;;5014954;28;20040;-72
2021/07/27 05:25:28;;;;;;;6.97;5.68;;;;;;;;;;5020243;28;20076;-71
2021/07/27 05:28:13;;;;;;;6.95;5.10;;;;;;;;;;5020986;28;20117;-71
2021/07/27 05:30:57;;;;;;;8.07;5.57;;;;;;;;;;5025688;28;20124;-72
2021/07/27 05:33:42;;;;;;;6.43;5.60;;;;;;;;;;5025196;28;20072;-74
2021/07/27 05:36:26;;;;;;;6.80;5.60;;;;;;;;;;5024282;28;20717;-72
2021/07/27 05:39:11;;;;;;;5.72;5.13;;;;;;;;;;5017538;28;20481;-73
2021/07/27 05:41:56;;;;;;;6.53;5.45;;;;;;;;;;5013862;28;20064;-72
2021/07/27 05:44:41;;;;;;;6.90;5.50;;;;;;;;;;5013205;28;20862;-72
2021/07/27 05:47:25;;;;;;;6.93;5.20;;;;;;;;;;5013554;28;20047;-74
2021/07/27 05:50:11;;;;;;;6.82;5.70;;;;;;;;;;5017795;28;20072;-72
2021/07/27 05:52:57;;;;;;;6.43;5.72;;;;;;;;;;5014700;28;20100;-72
2021/07/27 05:55:42;;;;;;;7.25;5.53;;;;;;;;;;5023811;28;20547;-71
2021/07/27 05:58:26;;;;;;;7.13;5.97;;;;;;;;;;5012173;28;20086;-71
2021/07/27 06:01:11;;;;;;;6.25;5.65;;;;;;;;;;5017092;28;20084;-71
2021/07/27 06:03:55;;;;;;;6.72;5.80;;;;;;;;;;5024382;28;20076;-71
2021/07/27 06:06:40;;;;;;;7.45;5.47;;;;;;;;;;5014987;28;20052;-72
2021/07/27 06:09:25;;;;;;;6.57;5.20;;;;;;;;;;5019282;28;20126;-71
2021/07/27 06:12:09;;;;;;;6.50;5.32;;;;;;;;;;5023702;28;20044;-72
2021/07/27 06:14:54;;;;;;;6.15;5.28;;;;;;;;;;4995153;28;20537;-72
2021/07/27 06:17:39;;;;;;;7.13;5.50;;;;;;;;;;5014581;28;20045;-71
2021/07/27 06:20:23;;;;;;;7.30;5.70;;;;;;;;;;5016474;28;20053;-72
2021/07/27 06:23:08;;;;;;;7.80;5.60;;;;;;;;;;5025235;28;20088;-71
2021/07/27 06:25:53;;;;;;;5.97;5.03;;;;;;;;;;5014895;28;20675;-74
2021/07/27 06:28:37;;;;;;;6.93;5.32;;;;;;;;;;5019640;28;20457;-72
2021/07/27 06:31:23;;;;;;;7.05;5.30;;;;;;;;;;5026530;28;20091;-70
2021/07/27 06:34:08;;;;;;;6.65;5.15;;;;;;;;;;5019578;28;20032;-72
2021/07/27 06:36:53;;;;;;;6.88;5.68;;;;;;;;;;5020618;28;20093;-71
2021/07/27 06:39:38;;;;;;;7.25;5.40;;;;;;;;;;5024220;28;20036;-72
2021/07/27 06:42:23;;;;;;;6.32;5.43;;;;;;;;;;5020854;28;20040;-72
2021/07/27 06:45:09;;;;;;;7.28;5.45;;;;;;;;;;5021967;28;20613;-71
2021/07/27 06:47:54;;;;;;;6.15;5.13;;;;;;;;;;5022196;28;20449;-71
2021/07/27 06:50:38;;;;;;;7.75;5.22;;;;;;;;;;5019147;28;20040;-71
2021/07/27 06:53:26;;;;;;;6.15;5.28;;;;;;;;;;5014506;28;20052;-72
2021/07/27 06:56:11;;;;;;;6.60;5.28;;;;;;;;;;5021155;28;20052;-71
2021/07/27 06:58:56;;;;;;;7.05;5.10;;;;;;;;;;5019904;28;20044;-71
2021/07/27 07:01:40;;;;;;;6.80;5.50;;;;;;;;;;5015251;28;20059;-71
2021/07/27 07:04:25;;;;;;;5.70;5.10;;;;;;;;;;5020110;28;20296;-72
2021/07/27 07:07:10;;;;;;;6.20;5.18;;;;;;;;;;5022191;28;20044;-71
2021/07/27 07:09:54;;;;;;;6.63;5.30;;;;;;;;;;5008426;28;20048;-71
2021/07/27 07:12:39;;;;;;;7.32;4.78;;;;;;;;;;5023748;28;20445;-71
2021/07/27 07:15:23;;;;;;;7.50;5.40;;;;;;;;;;5023045;28;20094;-73
2021/07/27 07:18:08;;;;;;;6.15;4.85;;;;;;;;;;5014346;28;20129;-72
2021/07/27 07:20:53;;;;;;;5.65;4.68;;;;;;;;;;5022419;28;20125;-72
2021/07/27 07:23:38;;;;;;;7.03;4.85;;;;;;;;;;5019897;28;20068;-72
2021/07/27 07:26:22;;;;;;;5.28;4.57;;;;;;;;;;5007661;28;20041;-73
2021/07/27 07:29:07;;;;;;;5.18;4.50;;;;;;;;;;5021840;28;20106;-72
2021/07/27 07:31:52;;;;;;;5.68;4.85;;;;;;;;;;5029855;28;20043;-72
2021/07/27 07:34:36;;;;;;;6.35;4.60;;;;;;;;;;5024958;28;20566;-72
2021/07/27 07:37:21;;;;;;;5.35;4.65;;;;;;;;;;5021734;28;20044;-72
2021/07/27 07:40:06;;;;;;;6.30;4.68;;;;;;;;;;5013868;28;20055;-72
2021/07/27 07:42:50;;;;;;;5.15;4.65;;;;;;;;;;5015216;28;20048;-71
2021/07/27 07:45:36;;;;;;;4.80;4.30;;;;;;;;;;5025109;28;20045;-73
2021/07/27 07:48:22;;;;;;;5.00;4.30;;;;;;;;;;5026378;28;20048;-72
2021/07/27 07:51:06;;;;;;;5.97;4.60;;;;;;;;;;5020997;28;20048;-72
2021/07/27 07:53:51;;;;;;;7.03;4.50;;;;;;;;;;5022868;28;20512;-72
2021/07/27 07:56:36;;;;;;;5.78;4.50;;;;;;;;;;5019883;28;20556;-74
2021/07/27 07:59:20;;;;;;;6.20;4.43;;;;;;;;;;5025899;28;20044;-75
2021/07/27 08:02:04;;;;;;;5.45;4.43;;;;;;;;;;5002826;28;20630;-72
2021/07/27 08:04:49;;;;;;;5.85;4.70;;;;;;;;;;5024418;28;20095;-73
2021/07/27 08:07:34;;;;;;;5.53;4.80;;;;;;;;;;5029124;28;20060;-72
2021/07/27 08:10:18;;;;;;;5.78;4.80;;;;;;;;;;5021190;28;20036;-72
2021/07/27 08:13:03;;;;;;;5.53;4.88;;;;;;;;;;5023924;28;20648;-72
2021/07/27 08:15:49;;;;;;;5.93;5.10;;;;;;;;;;5025235;28;20481;-72
2021/07/27 08:18:33;;;;;;;5.88;5.28;;;;;;;;;;5025324;28;20382;-72
2021/07/27 08:21:21;;;;;;;6.13;4.75;;;;;;;;;;5024764;28;20130;-71
2021/07/27 08:24:06;;;;;;;7.25;5.28;;;;;;;;;;5025934;28;20040;-72
2021/07/27 08:26:51;;;;;;;6.22;4.93;;;;;;;;;;5024876;28;20103;-72
2021/07/27 08:29:36;;;;;;;5.95;4.93;;;;;;;;;;5007314;28;20072;-73
2021/07/27 08:32:21;;;;;;;5.18;4.53;;;;;;;;;;5023565;28;20148;-71
2021/07/27 08:35:08;;;;;;;5.07;4.55;;;;;;;;;;5042336;28;20110;-72
2021/07/27 08:37:53;;;;;;;6.13;4.78;;;;;;;;;;5022996;28;20044;-72
2021/07/27 08:40:39;;;;;;;5.55;4.82;;;;;;;;;;5016077;28;20081;-72
2021/07/27 08:43:24;;;;;;;5.40;4.75;;;;;;;;;;5033848;28;20599;-72
2021/07/27 08:46:09;;;;;;;6.70;5.32;;;;;;;;;;5017169;28;20044;-72
2021/07/27 08:48:53;;;;;;;6.18;4.95;;;;;;;;;;5023258;28;20079;-73
2021/07/27 08:51:38;;;;;;;7.18;5.40;;;;;;;;;;5022860;28;20039;-72
2021/07/27 08:54:23;;;;;;;6.13;4.82;;;;;;;;;;5028085;28;20044;-72
2021/07/27 08:57:12;;;;;;;6.05;4.93;;;;;;;;;;5024083;28;20825;-72
2021/07/27 08:59:57;;;;;;;6.47;5.25;;;;;;;;;;5006676;28;20111;-73
2021/07/27 09:02:42;;;;;;;7.18;4.88;;;;;;;;;;5006759;28;20087;-72
2021/07/27 09:05:26;;;;;;;6.70;5.30;;;;;;;;;;5017528;28;20067;-72
2021/07/27 09:08:11;;;;;;;6.10;4.90;;;;;;;;;;5018994;28;20116;-71
2021/07/27 09:10:58;;;;;;;6.72;5.00;;;;;;;;;;5006913;28;20118;-72
2021/07/27 09:13:50;;;;;;;7.20;5.55;;;;;;;;;;5028314;28;20075;-72
2021/07/27 09:16:42;;;;;;;7.13;5.35;;;;;;;;;;5011212;28;20112;-72
2021/07/27 09:19:27;;;;;;;6.50;5.45;;;;;;;;;;5028696;28;20424;-72
2021/07/27 09:22:13;;;;;;;5.80;5.18;;;;;;;;;;5024905;28;20135;-72
2021/07/27 09:25:06;;;;;;;6.75;5.45;;;;;;;;;;5022403;28;20111;-73
2021/07/27 09:28:09;;;;;;;6.35;4.90;;;;;;;;;;5024412;28;20096;-72
2021/07/27 09:31:00;;;;;;;6.45;5.32;;;;;;;;;;5007829;28;20119;-72
2021/07/27 09:33:45;;;;;;;6.55;5.22;;;;;;;;;;5024221;28;20037;-72
2021/07/27 09:36:31;;;;;;;6.30;4.88;;;;;;;;;;5022933;28;20076;-74
2021/07/27 09:39:18;;;;;;;6.10;5.00;;;;;;;;;;5030952;28;20064;-74
2021/07/27 09:42:04;;;;;;;5.35;4.72;;;;;;;;;;5031768;28;20441;-72
2021/07/27 09:44:49;;;;;;;6.22;5.15;;;;;;;;;;5017744;28;20049;-75
2021/07/27 09:47:34;;;;;;;5.38;4.75;;;;;;;;;;5007417;28;20045;-73
2021/07/27 09:50:18;;;;;;;5.38;4.80;;;;;;;;;;5026321;28;20055;-73
2021/07/27 09:53:03;;;;;;;5.35;4.38;;;;;;;;;;5017637;28;20168;-73
2021/07/27 09:55:47;;;;;;;7.65;4.50;;;;;;;;;;5020092;28;20172;-73
2021/07/27 09:58:32;;;;;;;5.00;4.38;;;;;;;;;;5018658;28;20041;-73
2021/07/27 10:01:16;;;;;;;4.90;4.38;;;;;;;;;;5011326;28;20052;-73
2021/07/27 10:04:01;;;;;;;6.60;4.95;;;;;;;;;;5021687;28;20048;-74
2021/07/27 10:06:49;;;;;;;4.93;4.43;;;;;;;;;;5009403;28;20670;-73
2021/07/27 10:09:34;;;;;;;6.20;4.43;;;;;;;;;;5024562;28;20059;-73
2021/07/27 10:12:19;;;;;;;7.15;4.80;;;;;;;;;;5023426;28;20525;-72
2021/07/27 10:15:11;;;;;;;6.28;4.63;;;;;;;;;;5020183;28;20028;-72
2021/07/27 10:17:56;;;;;;;;;;;;;;;;;;5023627;28;20126;-71
2021/07/27 10:20:41;;;;;;;5.32;4.50;;;;;;;;;;5026363;28;19928;-72
2021/07/27 10:23:26;;;;;;;6.20;4.90;;;;;;;;;;5027948;28;20040;-72
2021/07/27 10:26:10;;;;;;;7.05;5.10;;;;;;;;;;5011417;28;20056;-72
2021/07/27 10:28:55;;;;;;;6.93;4.80;;;;;;;;;;5024117;28;20036;-72
2021/07/27 10:31:41;;;;;;;7.13;5.18;;;;;;;;;;5033592;28;20059;-72
2021/07/27 10:34:32;;;;;;;7.00;4.88;;;;;;;;;;5029976;28;20043;-74
2021/07/27 10:37:16;;;;;;;5.40;4.85;;;;;;;;;;5025061;28;20541;-73
2021/07/27 10:40:02;;;;;;;5.95;4.72;;;;;;;;;;5020490;28;20111;-73
2021/07/27 10:42:47;;;;;;;6.53;4.50;;;;;;;;;;5023764;28;20129;-72
2021/07/27 10:45:31;;;;;;;7.03;4.78;;;;;;;;;;5027983;28;20036;-72
2021/07/27 10:48:16;;;;;;;8.85;5.30;;;;;;;;;;5019700;28;20057;-73
2021/07/27 10:51:01;;;;;;;7.50;4.70;;;;;;;;;;5024486;28;20151;-72
2021/07/27 10:53:45;;;;;;;6.50;4.90;;;;;;;;;;5024162;28;20125;-72
2021/07/27 10:56:31;;;;;;;6.70;4.82;;;;;;;;;;5016206;28;20056;-73
2021/07/27 10:59:19;;;;;;;7.40;4.93;;;;;;;;;;5022584;28;20453;-75
2021/07/27 11:02:11;;;;;;;5.57;4.55;;;;;;;;;;5026044;28;20112;-72
2021/07/27 11:04:55;;;;;;;6.45;4.75;;;;;;;;;;5018266;28;20419;-73
2021/07/27 11:07:40;;;;;;;6.45;4.85;;;;;;;;;;5023735;28;20067;-73
2021/07/27 11:10:25;;;;;;;5.68;4.47;;;;;;;;;;5033258;28;20588;-72
2021/07/27 11:13:10;;;;;;;7.03;5.00;;;;;;;;;;5022877;28;20033;-73
2021/07/27 11:15:55;;;;;;;5.10;4.53;;;;;;;;;;5023683;28;20454;-72
2021/07/27 11:18:40;;;;;;;6.78;4.60;;;;;;;;;;5018183;28;20095;-72
2021/07/27 11:21:25;;;;;;;6.53;4.50;;;;;;;;;;5022018;28;20497;-72
2021/07/27 11:24:10;;;;;;;6.57;4.38;;;;;;;;;;5018716;28;20484;-72
2021/07/27 11:26:55;;;;;;;6.47;4.55;;;;;;;;;;5017394;28;20132;-72
2021/07/27 11:29:39;;;;;;;5.85;4.55;;;;;;;;;;5013784;28;20044;-72
2021/07/27 11:32:42;;;;;;;6.38;4.97;;;;;;;;;;5020322;28;20067;-71
2021/07/27 11:35:30;;;;;;;9.52;4.93;;;;;;;;;;5022262;28;20086;-76
2021/07/27 11:38:24;;;;;;;7.38;4.50;;;;;;;;;;5027629;28;20040;-72
2021/07/27 11:41:09;;;;;;;7.47;4.07;;;;;;;;;;5023164;28;20092;-71
2021/07/27 11:43:56;;;;;;;7.95;4.40;;;;;;;;;;5028736;28;20120;-72
2021/07/27 11:46:44;;;;;;;6.72;4.80;;;;;;;;;;5012825;28;20124;-73
2021/07/27 11:49:33;;;;;;;8.15;4.47;;;;;;;;;;5029279;28;20052;-71
2021/07/27 11:52:25;;;;;;;7.18;4.40;;;;;;;;;;5022718;28;20624;-71
2021/07/27 11:55:11;;;;;;;5.15;4.18;;;;;;;;;;5018885;28;20068;-72
2021/07/27 11:57:56;;;;;;;5.18;4.05;;;;;;;;;;5021642;28;20087;-71
2021/07/27 12:00:41;;;;;;;5.72;4.30;;;;;;;;;;5020921;28;20048;-71
2021/07/27 12:03:25;;;;;;;6.30;4.22;;;;;;;;;;5031838;28;20508;-72
2021/07/27 12:06:11;;;;;;;6.13;4.00;;;;;;;;;;5023874;28;20041;-72
2021/07/27 12:08:55;;;;;;;5.43;4.00;;;;;;;;;;5017226;28;20072;-72
2021/07/27 12:11:40;;;;;;;6.30;3.85;;;;;;;;;;5017059;28;20589;-72
2021/07/27 12:14:24;;;;;;;6.00;3.97;;;;;;;;;;5019981;28;20106;-71
2021/07/27 12:17:09;;;;;;;4.50;3.80;;;;;;;;;;5024555;28;20056;-71
2021/07/27 12:19:54;;;;;;;5.10;4.00;;;;;;;;;;5023451;28;20068;-71
2021/07/27 12:22:38;;;;;;;5.32;3.83;;;;;;;;;;5024003;28;20121;-72
2021/07/27 12:25:23;;;;;;;6.03;3.25;;;;;;;;;;5023023;28;20065;-71
2021/07/27 12:28:07;;;;;;;4.90;3.80;;;;;;;;;;5026392;28;20052;-71
2021/07/27 12:30:52;;;;;;;3.92;3.53;;;;;;;;;;5027880;28;20096;-71
2021/07/27 12:33:38;;;;;;;4.15;3.38;;;;;;;;;;5019529;28;20084;-71
2021/07/27 12:36:23;;;;;;;5.15;3.58;;;;;;;;;;5022260;28;20040;-71
2021/07/27 12:39:07;;;;;;;4.75;3.83;;;;;;;;;;5012582;28;20090;-71
2021/07/27 12:41:52;;;;;;;6.03;3.78;;;;;;;;;;5025721;28;20060;-71
2021/07/27 12:44:37;;;;;;;4.65;3.45;;;;;;;;;;5027963;28;20767;-72
2021/07/27 12:47:21;;;;;;;4.00;3.60;;;;;;;;;;5026646;28;20099;-71
2021/07/27 12:50:07;;;;;;;5.60;4.28;;;;;;;;;;5027325;28;20482;-72
2021/07/27 12:52:51;;;;;;;4.88;4.15;;;;;;;;;;5025906;28;20067;-72
2021/07/27 12:55:35;;;;;;;4.38;3.72;;;;;;;;;;5012343;28;20067;-73
2021/07/27 12:58:20;;;;;;;5.15;3.70;;;;;;;;;;5026904;28;20477;-72
2021/07/27 13:01:05;;;;;;;4.40;3.97;;;;;;;;;;5026384;28;20059;-73
2021/07/27 13:03:49;;;;;;;5.80;4.57;;;;;;;;;;5027603;28;20103;-71
2021/07/27 13:06:34;;;;;;;5.47;4.10;;;;;;;;;;5026140;28;20399;-71
2021/07/27 13:09:19;;;;;;;5.93;4.22;;;;;;;;;;5025262;28;20036;-72
2021/07/27 13:12:04;;;;;;;4.72;4.22;;;;;;;;;;5016840;28;20040;-71
2021/07/27 13:14:49;;;;;;;5.13;3.95;;;;;;;;;;5022937;28;20060;-72
2021/07/27 13:17:33;;;;;;;5.03;4.53;;;;;;;;;;5026804;28;20560;-72
2021/07/27 13:20:20;;;;;;;4.88;4.00;;;;;;;;;;5011392;28;20398;-71
2021/07/27 13:23:04;;;;;;;4.38;3.97;;;;;;;;;;5025240;28;20032;-71
2021/07/27 13:25:49;;;;;;;4.90;4.28;;;;;;;;;;5025942;28;20399;-72
2021/07/27 13:28:33;;;;;;;4.80;4.18;;;;;;;;;;5025091;28;20044;-71
2021/07/27 13:31:18;;;;;;;5.55;4.38;;;;;;;;;;5025530;28;20589;-72
2021/07/27 13:34:03;;;;;;;5.22;4.20;;;;;;;;;;5022004;28;20071;-72
2021/07/27 13:36:47;;;;;;;6.72;4.30;;;;;;;;;;5025981;28;20595;-72
2021/07/27 13:39:32;;;;;;;4.60;3.97;;;;;;;;;;5025238;28;20103;-72
2021/07/27 13:42:17;;;;;;;4.95;4.45;;;;;;;;;;5024621;28;20203;-71
2021/07/27 13:45:01;;;;;;;4.38;3.97;;;;;;;;;;5012753;28;20041;-71
2021/07/27 13:47:46;;;;;;;5.40;3.85;;;;;;;;;;5004074;28;20117;-72
2021/07/27 13:50:30;;;;;;;4.30;3.90;;;;;;;;;;5025148;28;20048;-71
2021/07/27 13:53:15;;;;;;;4.53;4.05;;;;;;;;;;5023068;28;20656;-71
2021/07/27 13:56:00;;;;;;;4.68;3.80;;;;;;;;;;5023501;28;20087;-70
2021/07/27 13:58:45;;;;;;;3.95;3.50;;;;;;;;;;5023874;28;20067;-71
2021/07/27 14:01:29;;;;;;;5.55;3.60;;;;;;;;;;5022599;28;20077;-71
2021/07/27 14:04:14;;;;;;;5.13;3.75;;;;;;;;;;5024652;28;20391;-71
2021/07/27 14:06:59;;;;;;;4.60;3.72;;;;;;;;;;5006236;28;20560;-71
2021/07/27 14:09:43;;;;;;;4.50;3.70;;;;;;;;;;5019328;28;20088;-71
2021/07/27 14:12:28;;;;;;;6.97;3.60;;;;;;;;;;5019204;28;20091;-71
2021/07/27 14:15:13;;;;;;;4.10;3.40;;;;;;;;;;5024808;28;20044;-72
2021/07/27 14:17:59;;;;;;;5.43;3.30;;;;;;;;;;5019171;28;20140;-71
2021/07/27 14:20:43;;;;;;;4.53;3.22;;;;;;;;;;5025711;28;20048;-71
2021/07/27 14:23:28;;;;;;;3.92;3.00;;;;;;;;;;5025539;28;20039;-72
2021/07/27 14:26:13;;;;;;;4.30;3.20;;;;;;;;;;5023586;28;20036;-71
2021/07/27 14:28:57;;;;;;;4.32;2.95;;;;;;;;;;5009416;28;20134;-71
2021/07/27 14:31:42;;;;;;;3.53;2.72;;;;;;;;;;5027401;28;20167;-71
2021/07/27 14:34:26;;;;;;;2.70;2.50;;;;;;;;;;5008761;28;20045;-71
2021/07/27 14:37:11;;;;;;;4.45;2.92;;;;;;;;;;5023913;28;20033;-73
2021/07/27 14:39:55;;;;;;;4.15;2.70;;;;;;;;;;5021952;28;20044;-71
2021/07/27 14:42:40;;;;;;;3.05;2.47;;;;;;;;;;5018837;28;20072;-71
2021/07/27 14:45:24;;;;;;;3.38;2.50;;;;;;;;;;5024220;28;20095;-72
2021/07/27 14:48:11;;;;;;;2.38;2.17;;;;;;;;;;5023280;28;20690;-71
2021/07/27 14:50:56;;;;;;;2.97;2.45;;;;;;;;;;5026830;28;20043;-72
2021/07/27 14:53:41;;;;;;;3.05;2.25;;;;;;;;;;5026658;28;20035;-72
2021/07/27 14:56:26;;;;;;;3.95;2.10;;;;;;;;;;5035069;28;20128;-72
2021/07/27 14:59:11;;;;;;;2.80;2.13;;;;;;;;;;5033141;28;20045;-73
2021/07/27 15:01:55;;;;;;;2.67;1.88;;;;;;;;;;5024012;28;20049;-71
2021/07/27 15:04:40;;;;;;;3.20;2.20;;;;;;;;;;5021253;28;20083;-71
2021/07/27 15:07:24;;;;;;;2.70;2.00;;;;;;;;;;5025143;28;20048;-71
2021/07/27 15:10:13;;;;;;;2.30;1.90;;;;;;;;;;5033020;28;20091;-73
2021/07/27 15:12:58;;;;;;;2.40;1.92;;;;;;;;;;5022629;28;20721;-72
2021/07/27 15:15:42;;;;;;;2.72;1.85;;;;;;;;;;5021322;28;20095;-72
2021/07/27 15:18:27;;;;;;;2.20;1.70;;;;;;;;;;5020865;28;20375;-72
2021/07/27 15:21:12;;;;;;;2.25;1.50;;;;;;;;;;5026300;28;20056;-73
2021/07/27 15:23:57;;;;;;;1.65;1.50;;;;;;;;;;5025170;28;20072;-73
2021/07/27 15:26:41;;;;;;;2.10;1.80;;;;;;;;;;5010585;28;20971;-72
2021/07/27 15:29:26;;;;;;;2.17;1.60;;;;;;;;;;5023058;28;20393;-72
2021/07/27 15:32:10;;;;;;;2.55;1.60;;;;;;;;;;5004879;28;20041;-71
2021/07/27 15:34:55;;;;;;;1.80;1.60;;;;;;;;;;5024350;28;20036;-71
2021/07/27 15:37:39;;;;;;;2.30;1.70;;;;;;;;;;5024227;28;20088;-72
2021/07/27 15:40:24;;;;;;;3.35;1.60;;;;;;;;;;5023783;28;20055;-71
2021/07/27 15:43:09;;;;;;;1.77;1.42;;;;;;;;;;5024538;28;20080;-72
2021/07/27 15:45:54;;;;;;;1.98;1.60;;;;;;;;;;5023939;28;20462;-73
2021/07/27 15:48:39;;;;;;;1.80;1.40;;;;;;;;;;5022307;28;20036;-72
2021/07/27 15:51:24;;;;;;;2.47;1.42;;;;;;;;;;5019575;28;20044;-73
2021/07/27 15:54:08;;;;;;;2.30;1.55;;;;;;;;;;5023980;28;20064;-72
2021/07/27 15:56:53;;;;;;;1.95;1.45;;;;;;;;;;5023104;28;20044;-72
2021/07/27 15:59:40;;;;;;;2.58;1.98;;;;;;;;;;5014008;28;20165;-72
2021/07/27 16:02:25;;;;;;;3.92;1.80;;;;;;;;;;5047454;28;20048;-72
2021/07/27 16:05:09;;;;;;;3.28;2.00;;;;;;;;;;5034213;28;20707;-71
2021/07/27 16:07:54;;;;;;;2.38;1.42;;;;;;;;;;5015994;28;20099;-72
2021/07/27 16:10:39;;;;;;;2.35;1.65;;;;;;;;;;5020177;28;20047;-72
2021/07/27 16:13:23;;;;;;;2.30;1.65;;;;;;;;;;5031571;28;20039;-72
2021/07/27 16:16:08;;;;;;;2.10;1.73;;;;;;;;;;5036641;28;20094;-72
2021/07/27 16:18:53;;;;;;;2.50;2.00;;;;;;;;;;5032462;28;20040;-72
2021/07/27 16:21:37;;;;;;;2.78;1.90;;;;;;;;;;5033754;28;20421;-72
2021/07/27 16:24:22;;;;;;;2.70;2.10;;;;;;;;;;5030517;28;20049;-72
2021/07/27 16:27:06;;;;;;;2.88;2.10;;;;;;;;;;5029365;28;20114;-73
2021/07/27 16:29:51;;;;;;;3.42;2.00;;;;;;;;;;5027298;28;20040;-71
2021/07/27 16:32:36;;;;;;;4.00;1.95;;;;;;;;;;5032468;28;20047;-71
2021/07/27 16:35:21;;;;;;;2.35;1.83;;;;;;;;;;5036166;28;20488;-72
2021/07/27 16:38:06;;;;;;;2.55;1.90;;;;;;;;;;5005321;28;20063;-72
2021/07/27 16:40:51;;;;;;;2.60;2.03;;;;;;;;;;5012489;28;20055;-72
2021/07/27 16:43:37;;;;;;;3.38;2.30;;;;;;;;;;5011844;28;20045;-72
2021/07/27 16:46:21;;;;;;;2.30;1.88;;;;;;;;;;5012798;28;20045;-71
2021/07/27 16:49:06;;;;;;;3.10;2.00;;;;;;;;;;5016476;28;20049;-72
2021/07/27 16:51:50;;;;;;;3.80;2.10;;;;;;;;;;5023840;28;20088;-70
2021/07/27 16:54:36;;;;;;;3.05;2.00;;;;;;;;;;5032834;28;20032;-71
2021/07/27 16:57:23;;;;;;;4.28;1.92;;;;;;;;;;5030849;28;20048;-70